sensor_id;sensor_type;location;lat;lon;timestamp;P1;durP1;ratioP1;P2;durP2;ratioP2
19329;SDS011;9799;48.214;16.388;2023-04-16T00:02:32;3.73;;;2.40;;
19329;SDS011;9799;48.214;16.388;2023-04-16T00:05:53;3.23;;;2.70;;
19329;SDS011;9799;48.214;16.388;2023-04-16T00:09:15;4.07;;;3.13;;
19329;SDS011;9799;48.214;16.388;2023-04-16T00:12:37;3.10;;;2.57;;
19329;SDS011;9799;48.214;16.388;2023-04-16T00:15:58;2.43;;;2.23;;
19329;SDS011;9799;48.214;16.388;2023-04-16T00:19:20;3.00;;;2.70;;
19329;SDS011;9799;48.214;16.388;2023-04-16T00:22:41;2.63;;;2.43;;
19329;SDS011;9799;48.214;16.388;2023-04-16T00:26:02;2.73;;;2.43;;
19329;SDS011;9799;48.214;16.388;2023-04-16T00:29:25;4.17;;;2.63;;
19329;SDS011;9799;48.214;16.388;2023-04-16T00:32:47;3.23;;;2.87;;
19329;SDS011;9799;48.214;16.388;2023-04-16T00:36:08;2.93;;;2.60;;
19329;SDS011;9799;48.214;16.388;2023-04-16T00:39:29;2.63;;;2.43;;
19329;SDS011;9799;48.214;16.388;2023-04-16T00:42:50;3.30;;;2.70;;
19329;SDS011;9799;48.214;16.388;2023-04-16T00:46:13;2.83;;;2.43;;
19329;SDS011;9799;48.214;16.388;2023-04-16T00:49:35;3.30;;;2.97;;
19329;SDS011;9799;48.214;16.388;2023-04-16T00:52:56;3.93;;;2.80;;
19329;SDS011;9799;48.214;16.388;2023-04-16T00:56:17;2.87;;;2.50;;
19329;SDS011;9799;48.214;16.388;2023-04-16T00:59:40;3.50;;;2.80;;
19329;SDS011;9799;48.214;16.388;2023-04-16T01:03:03;13.07;;;9.90;;
19329;SDS011;9799;48.214;16.388;2023-04-16T01:06:24;5.67;;;4.97;;
19329;SDS011;9799;48.214;16.388;2023-04-16T01:09:46;5.37;;;4.63;;
19329;SDS011;9799;48.214;16.388;2023-04-16T01:13:07;4.27;;;3.67;;
19329;SDS011;9799;48.214;16.388;2023-04-16T01:16:28;5.47;;;3.80;;
19329;SDS011;9799;48.214;16.388;2023-04-16T01:19:51;5.37;;;4.27;;
19329;SDS011;9799;48.214;16.388;2023-04-16T01:23:13;5.43;;;4.70;;
19329;SDS011;9799;48.214;16.388;2023-04-16T01:26:36;4.50;;;4.03;;
19329;SDS011;9799;48.214;16.388;2023-04-16T01:29:57;5.63;;;4.37;;
19329;SDS011;9799;48.214;16.388;2023-04-16T01:33:19;5.27;;;4.77;;
19329;SDS011;9799;48.214;16.388;2023-04-16T01:36:41;4.97;;;4.20;;
19329;SDS011;9799;48.214;16.388;2023-04-16T01:40:04;6.20;;;4.70;;
19329;SDS011;9799;48.214;16.388;2023-04-16T01:43:25;4.87;;;4.37;;
19329;SDS011;9799;48.214;16.388;2023-04-16T01:46:47;5.83;;;4.67;;
19329;SDS011;9799;48.214;16.388;2023-04-16T01:50:08;5.00;;;4.50;;
19329;SDS011;9799;48.214;16.388;2023-04-16T01:53:30;5.27;;;4.77;;
19329;SDS011;9799;48.214;16.388;2023-04-16T01:56:52;8.77;;;4.50;;
19329;SDS011;9799;48.214;16.388;2023-04-16T02:00:14;5.73;;;5.07;;
19329;SDS011;9799;48.214;16.388;2023-04-16T02:03:35;5.60;;;4.20;;
19329;SDS011;9799;48.214;16.388;2023-04-16T02:06:56;6.73;;;5.30;;
19329;SDS011;9799;48.214;16.388;2023-04-16T02:10:17;6.67;;;4.90;;
19329;SDS011;9799;48.214;16.388;2023-04-16T02:13:40;7.10;;;4.80;;
19329;SDS011;9799;48.214;16.388;2023-04-16T02:17:01;5.93;;;4.80;;
19329;SDS011;9799;48.214;16.388;2023-04-16T02:20:22;6.13;;;5.20;;
19329;SDS011;9799;48.214;16.388;2023-04-16T02:23:43;6.57;;;5.20;;
19329;SDS011;9799;48.214;16.388;2023-04-16T02:27:06;5.67;;;5.00;;
19329;SDS011;9799;48.214;16.388;2023-04-16T02:30:28;6.50;;;5.57;;
19329;SDS011;9799;48.214;16.388;2023-04-16T02:33:50;7.23;;;6.07;;
19329;SDS011;9799;48.214;16.388;2023-04-16T02:37:11;7.10;;;6.40;;
19329;SDS011;9799;48.214;16.388;2023-04-16T02:40:33;8.00;;;6.47;;
19329;SDS011;9799;48.214;16.388;2023-04-16T02:43:54;7.07;;;6.30;;
19329;SDS011;9799;48.214;16.388;2023-04-16T02:47:17;9.40;;;6.10;;
19329;SDS011;9799;48.214;16.388;2023-04-16T02:50:38;8.13;;;6.83;;
19329;SDS011;9799;48.214;16.388;2023-04-16T02:53:59;8.97;;;6.67;;
19329;SDS011;9799;48.214;16.388;2023-04-16T02:57:21;9.77;;;6.90;;
19329;SDS011;9799;48.214;16.388;2023-04-16T03:00:42;7.80;;;6.13;;
19329;SDS011;9799;48.214;16.388;2023-04-16T03:04:05;12.30;;;6.50;;
19329;SDS011;9799;48.214;16.388;2023-04-16T03:07:26;9.10;;;7.17;;
19329;SDS011;9799;48.214;16.388;2023-04-16T03:10:47;8.80;;;6.77;;
19329;SDS011;9799;48.214;16.388;2023-04-16T03:14:08;9.20;;;7.40;;
19329;SDS011;9799;48.214;16.388;2023-04-16T03:17:29;9.00;;;7.27;;
19329;SDS011;9799;48.214;16.388;2023-04-16T03:20:52;11.10;;;7.37;;
19329;SDS011;9799;48.214;16.388;2023-04-16T03:24:13;8.60;;;6.30;;
19329;SDS011;9799;48.214;16.388;2023-04-16T03:27:35;9.10;;;6.97;;
19329;SDS011;9799;48.214;16.388;2023-04-16T03:30:57;10.53;;;6.53;;
19329;SDS011;9799;48.214;16.388;2023-04-16T03:34:19;7.17;;;5.93;;
19329;SDS011;9799;48.214;16.388;2023-04-16T03:37:41;10.60;;;5.70;;
19329;SDS011;9799;48.214;16.388;2023-04-16T03:41:02;8.53;;;6.90;;
19329;SDS011;9799;48.214;16.388;2023-04-16T03:44:23;7.83;;;6.50;;
19329;SDS011;9799;48.214;16.388;2023-04-16T03:47:45;8.27;;;6.67;;
19329;SDS011;9799;48.214;16.388;2023-04-16T03:51:10;7.10;;;6.40;;
19329;SDS011;9799;48.214;16.388;2023-04-16T03:54:33;8.00;;;6.87;;
19329;SDS011;9799;48.214;16.388;2023-04-16T03:57:53;7.53;;;6.70;;
19329;SDS011;9799;48.214;16.388;2023-04-16T04:01:15;9.53;;;7.10;;
19329;SDS011;9799;48.214;16.388;2023-04-16T04:04:36;9.23;;;7.40;;
19329;SDS011;9799;48.214;16.388;2023-04-16T04:07:58;8.83;;;7.57;;
19329;SDS011;9799;48.214;16.388;2023-04-16T04:11:20;8.80;;;7.90;;
19329;SDS011;9799;48.214;16.388;2023-04-16T04:14:41;9.27;;;7.93;;
19329;SDS011;9799;48.214;16.388;2023-04-16T04:18:02;11.83;;;8.87;;
19329;SDS011;9799;48.214;16.388;2023-04-16T04:21:23;10.93;;;8.60;;
19329;SDS011;9799;48.214;16.388;2023-04-16T04:24:45;9.40;;;8.40;;
19329;SDS011;9799;48.214;16.388;2023-04-16T04:28:08;10.50;;;8.97;;
19329;SDS011;9799;48.214;16.388;2023-04-16T04:31:29;8.47;;;7.43;;
19329;SDS011;9799;48.214;16.388;2023-04-16T04:34:50;11.93;;;9.53;;
19329;SDS011;9799;48.214;16.388;2023-04-16T04:38:11;9.83;;;8.07;;
19329;SDS011;9799;48.214;16.388;2023-04-16T04:41:32;10.97;;;8.53;;
19329;SDS011;9799;48.214;16.388;2023-04-16T04:44:55;10.93;;;9.83;;
19329;SDS011;9799;48.214;16.388;2023-04-16T04:48:16;11.47;;;9.50;;
19329;SDS011;9799;48.214;16.388;2023-04-16T04:51:38;12.93;;;9.77;;
19329;SDS011;9799;48.214;16.388;2023-04-16T04:54:59;14.73;;;10.13;;
19329;SDS011;9799;48.214;16.388;2023-04-16T04:58:20;12.70;;;10.13;;
19329;SDS011;9799;48.214;16.388;2023-04-16T05:01:43;11.43;;;9.40;;
19329;SDS011;9799;48.214;16.388;2023-04-16T05:05:04;11.37;;;10.07;;
19329;SDS011;9799;48.214;16.388;2023-04-16T05:08:26;14.43;;;11.77;;
19329;SDS011;9799;48.214;16.388;2023-04-16T05:11:47;13.90;;;11.57;;
19329;SDS011;9799;48.214;16.388;2023-04-16T05:15:09;13.13;;;10.73;;
19329;SDS011;9799;48.214;16.388;2023-04-16T05:18:31;14.57;;;11.10;;
19329;SDS011;9799;48.214;16.388;2023-04-16T05:21:53;14.93;;;11.73;;
19329;SDS011;9799;48.214;16.388;2023-04-16T05:25:14;15.13;;;11.20;;
19329;SDS011;9799;48.214;16.388;2023-04-16T05:28:35;14.07;;;10.90;;
19329;SDS011;9799;48.214;16.388;2023-04-16T05:31:56;14.33;;;11.30;;
19329;SDS011;9799;48.214;16.388;2023-04-16T05:35:19;12.67;;;10.93;;
19329;SDS011;9799;48.214;16.388;2023-04-16T05:38:40;13.47;;;11.20;;
19329;SDS011;9799;48.214;16.388;2023-04-16T05:42:01;13.37;;;10.50;;
19329;SDS011;9799;48.214;16.388;2023-04-16T05:45:23;14.60;;;12.87;;
19329;SDS011;9799;48.214;16.388;2023-04-16T05:48:44;14.30;;;12.03;;
19329;SDS011;9799;48.214;16.388;2023-04-16T05:52:07;12.53;;;10.63;;
19329;SDS011;9799;48.214;16.388;2023-04-16T05:55:29;12.63;;;10.80;;
19329;SDS011;9799;48.214;16.388;2023-04-16T05:58:50;12.63;;;9.97;;
19329;SDS011;9799;48.214;16.388;2023-04-16T06:02:11;13.10;;;10.50;;
19329;SDS011;9799;48.214;16.388;2023-04-16T06:05:32;11.67;;;10.00;;
19329;SDS011;9799;48.214;16.388;2023-04-16T06:08:55;11.17;;;9.17;;
19329;SDS011;9799;48.214;16.388;2023-04-16T06:12:16;13.93;;;10.90;;
19329;SDS011;9799;48.214;16.388;2023-04-16T06:15:37;18.03;;;14.27;;
19329;SDS011;9799;48.214;16.388;2023-04-16T06:18:58;17.87;;;14.17;;
19329;SDS011;9799;48.214;16.388;2023-04-16T06:22:19;14.93;;;11.67;;
19329;SDS011;9799;48.214;16.388;2023-04-16T06:25:42;14.87;;;11.00;;
19329;SDS011;9799;48.214;16.388;2023-04-16T06:29:03;12.43;;;10.90;;
19329;SDS011;9799;48.214;16.388;2023-04-16T06:32:24;13.57;;;11.33;;
19329;SDS011;9799;48.214;16.388;2023-04-16T06:35:45;15.03;;;11.03;;
19329;SDS011;9799;48.214;16.388;2023-04-16T06:39:06;15.27;;;12.60;;
19329;SDS011;9799;48.214;16.388;2023-04-16T06:42:29;14.60;;;11.77;;
19329;SDS011;9799;48.214;16.388;2023-04-16T06:45:50;12.67;;;10.80;;
19329;SDS011;9799;48.214;16.388;2023-04-16T06:49:11;13.03;;;10.37;;
19329;SDS011;9799;48.214;16.388;2023-04-16T06:52:32;11.60;;;9.63;;
19329;SDS011;9799;48.214;16.388;2023-04-16T06:55:54;10.90;;;9.77;;
19329;SDS011;9799;48.214;16.388;2023-04-16T06:59:16;11.50;;;9.77;;
19329;SDS011;9799;48.214;16.388;2023-04-16T07:02:37;11.73;;;9.80;;
19329;SDS011;9799;48.214;16.388;2023-04-16T07:05:59;9.57;;;8.47;;
19329;SDS011;9799;48.214;16.388;2023-04-16T07:09:20;10.37;;;9.27;;
19329;SDS011;9799;48.214;16.388;2023-04-16T07:12:41;11.40;;;9.17;;
19329;SDS011;9799;48.214;16.388;2023-04-16T07:16:04;12.27;;;10.27;;
19329;SDS011;9799;48.214;16.388;2023-04-16T07:19:25;10.70;;;9.33;;
19329;SDS011;9799;48.214;16.388;2023-04-16T07:22:50;10.33;;;8.83;;
19329;SDS011;9799;48.214;16.388;2023-04-16T07:26:11;10.70;;;9.60;;
19329;SDS011;9799;48.214;16.388;2023-04-16T07:29:33;10.63;;;9.23;;
19329;SDS011;9799;48.214;16.388;2023-04-16T07:32:55;10.67;;;9.27;;
19329;SDS011;9799;48.214;16.388;2023-04-16T07:36:17;10.10;;;9.10;;
19329;SDS011;9799;48.214;16.388;2023-04-16T07:39:38;10.67;;;9.27;;
19329;SDS011;9799;48.214;16.388;2023-04-16T07:42:59;11.90;;;9.23;;
19329;SDS011;9799;48.214;16.388;2023-04-16T07:46:20;10.20;;;9.17;;
19329;SDS011;9799;48.214;16.388;2023-04-16T07:49:43;10.33;;;9.17;;
19329;SDS011;9799;48.214;16.388;2023-04-16T07:53:04;13.80;;;8.33;;
19329;SDS011;9799;48.214;16.388;2023-04-16T07:56:26;10.17;;;8.47;;
19329;SDS011;9799;48.214;16.388;2023-04-16T07:59:47;10.07;;;8.90;;
19329;SDS011;9799;48.214;16.388;2023-04-16T08:03:08;10.47;;;9.03;;
19329;SDS011;9799;48.214;16.388;2023-04-16T08:06:30;10.00;;;8.97;;
19329;SDS011;9799;48.214;16.388;2023-04-16T08:09:52;10.07;;;8.47;;
19329;SDS011;9799;48.214;16.388;2023-04-16T08:13:13;9.60;;;8.60;;
19329;SDS011;9799;48.214;16.388;2023-04-16T08:16:35;9.97;;;8.50;;
19329;SDS011;9799;48.214;16.388;2023-04-16T08:19:57;8.83;;;7.70;;
19329;SDS011;9799;48.214;16.388;2023-04-16T08:23:19;8.60;;;7.70;;
19329;SDS011;9799;48.214;16.388;2023-04-16T08:26:41;8.30;;;7.50;;
19329;SDS011;9799;48.214;16.388;2023-04-16T08:30:02;8.90;;;7.40;;
19329;SDS011;9799;48.214;16.388;2023-04-16T08:33:23;8.83;;;7.17;;
19329;SDS011;9799;48.214;16.388;2023-04-16T08:36:45;7.00;;;6.30;;
19329;SDS011;9799;48.214;16.388;2023-04-16T08:40:08;5.90;;;5.30;;
19329;SDS011;9799;48.214;16.388;2023-04-16T08:43:29;6.07;;;5.50;;
19329;SDS011;9799;48.214;16.388;2023-04-16T08:46:53;6.30;;;5.40;;
19329;SDS011;9799;48.214;16.388;2023-04-16T08:50:18;5.97;;;5.37;;
19329;SDS011;9799;48.214;16.388;2023-04-16T08:53:47;5.60;;;4.90;;
19329;SDS011;9799;48.214;16.388;2023-04-16T08:57:15;8.03;;;5.73;;
19329;SDS011;9799;48.214;16.388;2023-04-16T09:00:39;5.80;;;5.20;;
19329;SDS011;9799;48.214;16.388;2023-04-16T09:04:01;4.77;;;4.37;;
19329;SDS011;9799;48.214;16.388;2023-04-16T09:07:23;4.93;;;4.43;;
19329;SDS011;9799;48.214;16.388;2023-04-16T09:10:45;3.93;;;3.63;;
19329;SDS011;9799;48.214;16.388;2023-04-16T09:14:09;4.93;;;4.43;;
19329;SDS011;9799;48.214;16.388;2023-04-16T09:17:31;4.20;;;3.80;;
19329;SDS011;9799;48.214;16.388;2023-04-16T09:20:54;4.47;;;3.80;;
19329;SDS011;9799;48.214;16.388;2023-04-16T09:24:16;4.60;;;4.20;;
19329;SDS011;9799;48.214;16.388;2023-04-16T09:27:37;7.27;;;4.37;;
19329;SDS011;9799;48.214;16.388;2023-04-16T09:31:07;4.50;;;4.10;;
19329;SDS011;9799;48.214;16.388;2023-04-16T09:34:30;5.10;;;4.60;;
19329;SDS011;9799;48.214;16.388;2023-04-16T09:37:55;4.97;;;4.50;;
19329;SDS011;9799;48.214;16.388;2023-04-16T09:41:17;5.53;;;4.57;;
19329;SDS011;9799;48.214;16.388;2023-04-16T09:44:39;4.17;;;3.77;;
19329;SDS011;9799;48.214;16.388;2023-04-16T09:48:04;4.13;;;3.73;;
19329;SDS011;9799;48.214;16.388;2023-04-16T09:51:26;4.10;;;3.70;;
19329;SDS011;9799;48.214;16.388;2023-04-16T09:54:56;4.30;;;3.90;;
19329;SDS011;9799;48.214;16.388;2023-04-16T09:58:19;5.27;;;4.77;;
19329;SDS011;9799;48.214;16.388;2023-04-16T10:01:40;4.63;;;4.13;;
19329;SDS011;9799;48.214;16.388;2023-04-16T10:05:06;4.93;;;4.43;;
19329;SDS011;9799;48.214;16.388;2023-04-16T10:08:28;5.13;;;4.63;;
19329;SDS011;9799;48.214;16.388;2023-04-16T10:11:49;5.20;;;4.70;;
19329;SDS011;9799;48.214;16.388;2023-04-16T10:15:10;4.77;;;4.37;;
19329;SDS011;9799;48.214;16.388;2023-04-16T10:18:32;5.57;;;5.07;;
19329;SDS011;9799;48.214;16.388;2023-04-16T10:21:56;4.37;;;3.97;;
19329;SDS011;9799;48.214;16.388;2023-04-16T10:25:18;6.33;;;5.47;;
19329;SDS011;9799;48.214;16.388;2023-04-16T10:28:40;5.60;;;5.10;;
19329;SDS011;9799;48.214;16.388;2023-04-16T10:32:01;5.90;;;5.00;;
19329;SDS011;9799;48.214;16.388;2023-04-16T10:35:24;6.27;;;5.40;;
19329;SDS011;9799;48.214;16.388;2023-04-16T10:38:47;6.67;;;5.40;;
19329;SDS011;9799;48.214;16.388;2023-04-16T10:42:10;5.07;;;4.63;;
19329;SDS011;9799;48.214;16.388;2023-04-16T10:45:36;5.50;;;5.00;;
19329;SDS011;9799;48.214;16.388;2023-04-16T10:48:59;4.37;;;3.97;;
19329;SDS011;9799;48.214;16.388;2023-04-16T10:52:21;5.70;;;5.10;;
19329;SDS011;9799;48.214;16.388;2023-04-16T10:55:56;5.30;;;4.63;;
19329;SDS011;9799;48.214;16.388;2023-04-16T10:59:18;4.10;;;3.70;;
19329;SDS011;9799;48.214;16.388;2023-04-16T11:02:41;4.20;;;3.80;;
19329;SDS011;9799;48.214;16.388;2023-04-16T11:06:14;5.07;;;4.57;;
19329;SDS011;9799;48.214;16.388;2023-04-16T11:09:43;4.57;;;4.13;;
19329;SDS011;9799;48.214;16.388;2023-04-16T11:13:06;4.20;;;3.80;;
19329;SDS011;9799;48.214;16.388;2023-04-16T11:16:28;4.30;;;3.90;;
19329;SDS011;9799;48.214;16.388;2023-04-16T11:19:51;4.30;;;3.90;;
19329;SDS011;9799;48.214;16.388;2023-04-16T11:23:12;3.33;;;3.03;;
19329;SDS011;9799;48.214;16.388;2023-04-16T11:26:34;4.20;;;3.80;;
19329;SDS011;9799;48.214;16.388;2023-04-16T11:29:57;4.17;;;3.77;;
19329;SDS011;9799;48.214;16.388;2023-04-16T11:33:18;4.20;;;3.77;;
19329;SDS011;9799;48.214;16.388;2023-04-16T11:36:43;4.43;;;3.20;;
19329;SDS011;9799;48.214;16.388;2023-04-16T11:40:04;4.37;;;3.97;;
19329;SDS011;9799;48.214;16.388;2023-04-16T11:43:28;4.13;;;3.83;;
19329;SDS011;9799;48.214;16.388;2023-04-16T11:46:50;3.33;;;3.10;;
19329;SDS011;9799;48.214;16.388;2023-04-16T11:50:19;3.20;;;2.90;;
19329;SDS011;9799;48.214;16.388;2023-04-16T11:53:45;4.30;;;3.90;;
19329;SDS011;9799;48.214;16.388;2023-04-16T11:57:07;4.83;;;3.10;;
19329;SDS011;9799;48.214;16.388;2023-04-16T12:00:33;4.17;;;3.73;;
19329;SDS011;9799;48.214;16.388;2023-04-16T12:03:59;4.47;;;3.30;;
19329;SDS011;9799;48.214;16.388;2023-04-16T12:07:21;3.47;;;3.17;;
19329;SDS011;9799;48.214;16.388;2023-04-16T12:10:51;2.90;;;2.63;;
19329;SDS011;9799;48.214;16.388;2023-04-16T12:14:14;2.77;;;2.57;;
19329;SDS011;9799;48.214;16.388;2023-04-16T12:17:35;5.17;;;2.37;;
19329;SDS011;9799;48.214;16.388;2023-04-16T12:20:58;3.17;;;2.83;;
19329;SDS011;9799;48.214;16.388;2023-04-16T12:24:24;2.57;;;2.37;;
19329;SDS011;9799;48.214;16.388;2023-04-16T12:27:46;2.83;;;2.63;;
19329;SDS011;9799;48.214;16.388;2023-04-16T12:31:09;3.30;;;2.90;;
19329;SDS011;9799;48.214;16.388;2023-04-16T12:34:30;3.10;;;2.80;;
19329;SDS011;9799;48.214;16.388;2023-04-16T12:37:52;2.70;;;2.50;;
19329;SDS011;9799;48.214;16.388;2023-04-16T12:41:14;2.70;;;2.50;;
19329;SDS011;9799;48.214;16.388;2023-04-16T12:44:35;2.50;;;2.30;;
19329;SDS011;9799;48.214;16.388;2023-04-16T12:47:56;2.57;;;2.37;;
19329;SDS011;9799;48.214;16.388;2023-04-16T12:51:17;2.50;;;2.30;;
19329;SDS011;9799;48.214;16.388;2023-04-16T12:54:40;2.67;;;2.47;;
19329;SDS011;9799;48.214;16.388;2023-04-16T12:58:01;2.70;;;2.47;;
19329;SDS011;9799;48.214;16.388;2023-04-16T13:01:22;3.13;;;2.83;;
19329;SDS011;9799;48.214;16.388;2023-04-16T13:04:44;2.10;;;2.00;;
19329;SDS011;9799;48.214;16.388;2023-04-16T13:08:05;2.03;;;1.87;;
19329;SDS011;9799;48.214;16.388;2023-04-16T13:11:28;1.80;;;1.70;;
19329;SDS011;9799;48.214;16.388;2023-04-16T13:14:49;2.17;;;2.00;;
19329;SDS011;9799;48.214;16.388;2023-04-16T13:18:11;3.20;;;2.90;;
19329;SDS011;9799;48.214;16.388;2023-04-16T13:21:32;3.00;;;2.80;;
19329;SDS011;9799;48.214;16.388;2023-04-16T13:24:53;4.17;;;2.30;;
19329;SDS011;9799;48.214;16.388;2023-04-16T13:28:16;2.83;;;2.30;;
19329;SDS011;9799;48.214;16.388;2023-04-16T13:31:38;2.27;;;2.10;;
19329;SDS011;9799;48.214;16.388;2023-04-16T13:34:59;3.13;;;2.70;;
19329;SDS011;9799;48.214;16.388;2023-04-16T13:38:21;1.87;;;1.77;;
19329;SDS011;9799;48.214;16.388;2023-04-16T13:41:42;2.63;;;2.43;;
19329;SDS011;9799;48.214;16.388;2023-04-16T13:45:05;2.57;;;2.37;;
19329;SDS011;9799;48.214;16.388;2023-04-16T13:48:27;3.37;;;2.63;;
19329;SDS011;9799;48.214;16.388;2023-04-16T13:51:49;3.57;;;2.53;;
19329;SDS011;9799;48.214;16.388;2023-04-16T13:55:10;3.00;;;2.70;;
19329;SDS011;9799;48.214;16.388;2023-04-16T13:58:32;3.13;;;2.83;;
19329;SDS011;9799;48.214;16.388;2023-04-16T14:01:56;2.67;;;2.47;;
19329;SDS011;9799;48.214;16.388;2023-04-16T14:05:18;2.67;;;2.47;;
19329;SDS011;9799;48.214;16.388;2023-04-16T14:08:41;2.80;;;2.50;;
19329;SDS011;9799;48.214;16.388;2023-04-16T14:12:02;3.33;;;2.80;;
19329;SDS011;9799;48.214;16.388;2023-04-16T14:15:24;3.17;;;2.73;;
19329;SDS011;9799;48.214;16.388;2023-04-16T14:18:49;2.80;;;2.60;;
19329;SDS011;9799;48.214;16.388;2023-04-16T14:22:10;3.13;;;2.70;;
19329;SDS011;9799;48.214;16.388;2023-04-16T14:25:36;4.30;;;2.50;;
19329;SDS011;9799;48.214;16.388;2023-04-16T14:28:57;2.37;;;2.17;;
19329;SDS011;9799;48.214;16.388;2023-04-16T14:32:19;2.40;;;2.20;;
19329;SDS011;9799;48.214;16.388;2023-04-16T14:35:42;2.50;;;2.30;;
19329;SDS011;9799;48.214;16.388;2023-04-16T14:39:04;2.80;;;2.60;;
19329;SDS011;9799;48.214;16.388;2023-04-16T14:42:25;3.53;;;3.23;;
19329;SDS011;9799;48.214;16.388;2023-04-16T14:45:47;3.40;;;2.87;;
19329;SDS011;9799;48.214;16.388;2023-04-16T14:49:08;2.93;;;2.73;;
19329;SDS011;9799;48.214;16.388;2023-04-16T14:52:31;3.30;;;2.97;;
19329;SDS011;9799;48.214;16.388;2023-04-16T14:55:53;2.90;;;2.70;;
19329;SDS011;9799;48.214;16.388;2023-04-16T14:59:17;3.67;;;3.37;;
19329;SDS011;9799;48.214;16.388;2023-04-16T15:02:38;2.73;;;2.47;;
19329;SDS011;9799;48.214;16.388;2023-04-16T15:05:59;3.87;;;3.40;;
19329;SDS011;9799;48.214;16.388;2023-04-16T15:09:22;3.00;;;2.73;;
19329;SDS011;9799;48.214;16.388;2023-04-16T15:12:43;3.07;;;2.87;;
19329;SDS011;9799;48.214;16.388;2023-04-16T15:16:04;3.87;;;3.57;;
19329;SDS011;9799;48.214;16.388;2023-04-16T15:19:26;2.60;;;2.40;;
19329;SDS011;9799;48.214;16.388;2023-04-16T15:22:47;2.63;;;2.43;;
19329;SDS011;9799;48.214;16.388;2023-04-16T15:26:11;2.60;;;2.40;;
19329;SDS011;9799;48.214;16.388;2023-04-16T15:29:32;2.57;;;2.37;;
19329;SDS011;9799;48.214;16.388;2023-04-16T15:32:53;2.73;;;2.53;;
19329;SDS011;9799;48.214;16.388;2023-04-16T15:36:14;5.53;;;3.00;;
19329;SDS011;9799;48.214;16.388;2023-04-16T15:39:35;3.17;;;2.87;;
19329;SDS011;9799;48.214;16.388;2023-04-16T15:42:59;2.90;;;2.70;;
19329;SDS011;9799;48.214;16.388;2023-04-16T15:46:21;3.47;;;3.13;;
19329;SDS011;9799;48.214;16.388;2023-04-16T15:49:43;3.20;;;2.87;;
19329;SDS011;9799;48.214;16.388;2023-04-16T15:53:04;3.27;;;3.00;;
19329;SDS011;9799;48.214;16.388;2023-04-16T15:56:28;3.67;;;3.30;;
19329;SDS011;9799;48.214;16.388;2023-04-16T15:59:53;3.97;;;3.67;;
19329;SDS011;9799;48.214;16.388;2023-04-16T16:03:14;3.37;;;3.07;;
19329;SDS011;9799;48.214;16.388;2023-04-16T16:06:39;4.07;;;3.47;;
19329;SDS011;9799;48.214;16.388;2023-04-16T16:10:01;4.40;;;4.00;;
19329;SDS011;9799;48.214;16.388;2023-04-16T16:13:24;4.13;;;3.57;;
19329;SDS011;9799;48.214;16.388;2023-04-16T16:16:47;3.70;;;3.40;;
19329;SDS011;9799;48.214;16.388;2023-04-16T16:20:09;4.20;;;3.03;;
19329;SDS011;9799;48.214;16.388;2023-04-16T16:23:31;4.77;;;4.00;;
19329;SDS011;9799;48.214;16.388;2023-04-16T16:26:53;3.90;;;3.10;;
19329;SDS011;9799;48.214;16.388;2023-04-16T16:30:14;4.10;;;3.67;;
19329;SDS011;9799;48.214;16.388;2023-04-16T16:33:37;4.20;;;3.63;;
19329;SDS011;9799;48.214;16.388;2023-04-16T16:36:59;3.70;;;3.40;;
19329;SDS011;9799;48.214;16.388;2023-04-16T16:40:21;4.90;;;4.20;;
19329;SDS011;9799;48.214;16.388;2023-04-16T16:43:43;6.50;;;4.30;;
19329;SDS011;9799;48.214;16.388;2023-04-16T16:47:05;5.27;;;4.77;;
19329;SDS011;9799;48.214;16.388;2023-04-16T16:50:28;4.60;;;4.20;;
19329;SDS011;9799;48.214;16.388;2023-04-16T16:53:51;4.83;;;4.43;;
19329;SDS011;9799;48.214;16.388;2023-04-16T16:57:14;4.30;;;3.90;;
19329;SDS011;9799;48.214;16.388;2023-04-16T17:00:36;5.20;;;4.53;;
19329;SDS011;9799;48.214;16.388;2023-04-16T17:03:57;5.50;;;5.00;;
19329;SDS011;9799;48.214;16.388;2023-04-16T17:07:22;5.27;;;4.77;;
19329;SDS011;9799;48.214;16.388;2023-04-16T17:10:44;6.83;;;5.40;;
19329;SDS011;9799;48.214;16.388;2023-04-16T17:14:06;6.03;;;5.43;;
19329;SDS011;9799;48.214;16.388;2023-04-16T17:17:28;6.37;;;5.33;;
19329;SDS011;9799;48.214;16.388;2023-04-16T17:20:51;6.90;;;5.67;;
19329;SDS011;9799;48.214;16.388;2023-04-16T17:24:14;5.43;;;4.87;;
19329;SDS011;9799;48.214;16.388;2023-04-16T17:27:36;5.70;;;5.20;;
19329;SDS011;9799;48.214;16.388;2023-04-16T17:30:58;6.70;;;6.00;;
19329;SDS011;9799;48.214;16.388;2023-04-16T17:34:20;7.00;;;6.30;;
19329;SDS011;9799;48.214;16.388;2023-04-16T17:37:42;5.93;;;5.33;;
19329;SDS011;9799;48.214;16.388;2023-04-16T17:41:05;6.57;;;5.97;;
19329;SDS011;9799;48.214;16.388;2023-04-16T17:44:27;7.10;;;6.37;;
19329;SDS011;9799;48.214;16.388;2023-04-16T17:47:49;7.67;;;6.87;;
19329;SDS011;9799;48.214;16.388;2023-04-16T17:51:11;8.30;;;6.70;;
19329;SDS011;9799;48.214;16.388;2023-04-16T17:54:34;7.63;;;6.83;;
19329;SDS011;9799;48.214;16.388;2023-04-16T17:57:57;9.17;;;7.03;;
19329;SDS011;9799;48.214;16.388;2023-04-16T18:01:22;8.73;;;7.73;;
19329;SDS011;9799;48.214;16.388;2023-04-16T18:04:44;8.97;;;7.80;;
19329;SDS011;9799;48.214;16.388;2023-04-16T18:08:07;10.33;;;7.97;;
19329;SDS011;9799;48.214;16.388;2023-04-16T18:11:28;11.20;;;7.73;;
19329;SDS011;9799;48.214;16.388;2023-04-16T18:14:51;9.00;;;7.97;;
19329;SDS011;9799;48.214;16.388;2023-04-16T18:18:12;7.77;;;6.97;;
19329;SDS011;9799;48.214;16.388;2023-04-16T18:21:34;8.37;;;6.90;;
19329;SDS011;9799;48.214;16.388;2023-04-16T18:24:57;7.20;;;6.47;;
19329;SDS011;9799;48.214;16.388;2023-04-16T18:28:19;6.63;;;6.03;;
19329;SDS011;9799;48.214;16.388;2023-04-16T18:31:41;7.53;;;6.77;;
19329;SDS011;9799;48.214;16.388;2023-04-16T18:35:03;6.70;;;6.00;;
19329;SDS011;9799;48.214;16.388;2023-04-16T18:38:25;7.80;;;7.03;;
19329;SDS011;9799;48.214;16.388;2023-04-16T18:41:47;7.03;;;6.33;;
19329;SDS011;9799;48.214;16.388;2023-04-16T18:45:09;8.63;;;6.70;;
19329;SDS011;9799;48.214;16.388;2023-04-16T18:48:34;9.53;;;8.53;;
19329;SDS011;9799;48.214;16.388;2023-04-16T18:51:56;7.83;;;7.03;;
19329;SDS011;9799;48.214;16.388;2023-04-16T18:55:18;8.43;;;7.07;;
19329;SDS011;9799;48.214;16.388;2023-04-16T18:58:39;11.57;;;9.27;;
19329;SDS011;9799;48.214;16.388;2023-04-16T19:02:01;11.67;;;9.40;;
19329;SDS011;9799;48.214;16.388;2023-04-16T19:05:27;10.30;;;7.93;;
19329;SDS011;9799;48.214;16.388;2023-04-16T19:08:50;9.10;;;7.70;;
19329;SDS011;9799;48.214;16.388;2023-04-16T19:12:12;8.97;;;7.20;;
19329;SDS011;9799;48.214;16.388;2023-04-16T19:15:33;6.83;;;6.13;;
19329;SDS011;9799;48.214;16.388;2023-04-16T19:18:55;8.10;;;7.03;;
19329;SDS011;9799;48.214;16.388;2023-04-16T19:22:19;6.90;;;6.30;;
19329;SDS011;9799;48.214;16.388;2023-04-16T19:25:41;5.80;;;5.20;;
19329;SDS011;9799;48.214;16.388;2023-04-16T19:29:02;6.13;;;5.53;;
19329;SDS011;9799;48.214;16.388;2023-04-16T19:32:24;6.77;;;6.07;;
19329;SDS011;9799;48.214;16.388;2023-04-16T19:35:45;6.47;;;5.80;;
19329;SDS011;9799;48.214;16.388;2023-04-16T19:39:08;6.40;;;5.80;;
19329;SDS011;9799;48.214;16.388;2023-04-16T19:42:29;7.47;;;6.30;;
19329;SDS011;9799;48.214;16.388;2023-04-16T19:45:52;6.03;;;5.50;;
19329;SDS011;9799;48.214;16.388;2023-04-16T19:49:14;6.50;;;5.90;;
19329;SDS011;9799;48.214;16.388;2023-04-16T19:52:36;6.40;;;5.77;;
19329;SDS011;9799;48.214;16.388;2023-04-16T19:56:00;6.97;;;6.07;;
19329;SDS011;9799;48.214;16.388;2023-04-16T19:59:22;6.30;;;5.70;;
19329;SDS011;9799;48.214;16.388;2023-04-16T20:02:47;5.73;;;5.13;;
19329;SDS011;9799;48.214;16.388;2023-04-16T20:06:08;6.27;;;5.67;;
19329;SDS011;9799;48.214;16.388;2023-04-16T20:09:31;5.73;;;5.13;;
19329;SDS011;9799;48.214;16.388;2023-04-16T20:12:54;6.63;;;5.57;;